createdAt,value
2023-05-12T00:01:17.778Z,10.80
2023-05-12T00:03:44.892Z,11.50
2023-05-12T00:06:12.603Z,11.20
2023-05-12T00:08:39.464Z,10.40
2023-05-12T00:11:06.338Z,10.90
2023-05-12T00:13:33.417Z,10.70
2023-05-12T00:16:00.725Z,11.60
2023-05-12T00:18:28.753Z,5.00
2023-05-12T00:20:56.067Z,9.90
2023-05-12T00:23:23.436Z,10.60
2023-05-12T00:25:50.534Z,10.10
2023-05-12T00:28:18.402Z,11.20
2023-05-12T00:30:45.808Z,10.00
2023-05-12T00:33:12.832Z,10.10
2023-05-12T00:35:39.873Z,9.90
2023-05-12T00:38:06.780Z,9.60
2023-05-12T00:40:33.882Z,4.90
2023-05-12T00:43:00.722Z,9.80
2023-05-12T00:45:29.950Z,9.40
2023-05-12T00:47:57.329Z,10.80
2023-05-12T00:50:24.530Z,10.30
2023-05-12T00:52:51.366Z,10.00
2023-05-12T00:55:18.257Z,9.80
2023-05-12T00:57:45.662Z,10.20
2023-05-12T01:00:14.193Z,10.40
2023-05-12T01:02:42.382Z,10.30
2023-05-12T01:05:10.146Z,9.80
2023-05-12T01:07:37.761Z,9.30
2023-05-12T01:10:05.362Z,9.60
2023-05-12T01:12:34.917Z,9.70
2023-05-12T01:15:02.812Z,9.30
2023-05-12T01:17:32.979Z,9.50
2023-05-12T01:20:01.843Z,10.10
2023-05-12T01:22:31.378Z,10.40
2023-05-12T01:25:00.038Z,5.50
2023-05-12T01:27:29.002Z,9.80
2023-05-12T01:29:59.048Z,10.40
2023-05-12T01:32:26.569Z,10.30
2023-05-12T01:34:53.775Z,9.80
2023-05-12T01:37:21.336Z,9.90
2023-05-12T01:39:48.621Z,9.80
2023-05-12T01:42:20.406Z,9.80
2023-05-12T01:44:47.736Z,9.80
2023-05-12T01:47:16.174Z,4.00
2023-05-12T01:49:49.252Z,10.10
2023-05-12T01:52:16.656Z,10.20
2023-05-12T01:54:43.780Z,8.90
2023-05-12T01:57:11.455Z,5.10
2023-05-12T01:59:38.787Z,9.00
2023-05-12T02:02:06.765Z,9.10
2023-05-12T02:04:34.816Z,9.30
2023-05-12T02:07:02.437Z,9.10
2023-05-12T02:09:29.592Z,4.20
2023-05-12T02:12:00.107Z,10.00
2023-05-12T02:14:27.041Z,9.50
2023-05-12T02:16:55.653Z,9.70
2023-05-12T02:19:23.661Z,8.90
2023-05-12T02:21:50.587Z,4.40
2023-05-12T02:24:17.621Z,8.90
2023-05-12T02:26:45.115Z,10.30
2023-05-12T02:29:13.183Z,3.80
2023-05-12T02:31:40.369Z,8.00
2023-05-12T02:36:42.996Z,9.00
2023-05-12T02:39:10.906Z,10.00
2023-05-12T02:41:37.899Z,4.50
2023-05-12T02:44:05.340Z,9.80
2023-05-12T02:46:32.443Z,9.50
2023-05-12T02:48:59.482Z,9.10
2023-05-12T02:51:26.455Z,8.90
2023-05-12T02:53:53.404Z,4.40
2023-05-12T02:56:20.909Z,10.10
2023-05-12T02:58:48.243Z,9.90
2023-05-12T03:01:15.188Z,9.00
2023-05-12T03:03:42.524Z,10.10
2023-05-12T03:06:09.976Z,4.10
2023-05-12T03:08:37.080Z,10.30
2023-05-12T03:11:04.391Z,10.10
2023-05-12T03:13:31.541Z,9.90
2023-05-12T03:16:01.772Z,10.10
2023-05-12T03:18:29.994Z,9.00
2023-05-12T03:20:57.292Z,8.90
2023-05-12T03:23:24.850Z,9.10
2023-05-12T03:25:51.817Z,9.90
2023-05-12T03:28:19.209Z,8.30
2023-05-12T03:30:46.129Z,9.90
2023-05-12T03:33:13.191Z,8.70
2023-05-12T03:35:40.166Z,9.00
2023-05-12T03:38:07.264Z,8.70
2023-05-12T03:40:34.194Z,7.50
2023-05-12T03:43:01.174Z,7.70
2023-05-12T03:45:28.203Z,8.40
2023-05-12T03:47:55.449Z,8.40
2023-05-12T03:50:22.570Z,8.50
2023-05-12T03:52:49.581Z,8.30
2023-05-12T03:55:16.908Z,8.00
2023-05-12T03:57:44.042Z,8.00
2023-05-12T04:00:11.888Z,8.60
2023-05-12T04:02:44.200Z,8.00
2023-05-12T04:05:11.318Z,8.20
2023-05-12T04:07:38.479Z,7.80
2023-05-12T04:10:05.865Z,8.00
2023-05-12T04:12:33.053Z,8.30
2023-05-12T04:15:00.475Z,7.90
2023-05-12T04:17:27.514Z,8.00
2023-05-12T04:19:54.631Z,8.10
2023-05-12T04:22:23.443Z,8.50
2023-05-12T04:24:52.154Z,8.10
2023-05-12T04:27:19.246Z,8.00
2023-05-12T04:29:46.197Z,8.30
2023-05-12T04:32:13.579Z,8.10
2023-05-12T04:34:40.710Z,7.90
2023-05-12T04:37:08.361Z,9.00
2023-05-12T04:39:35.575Z,8.70
2023-05-12T04:42:03.256Z,10.20
2023-05-12T04:44:32.684Z,9.20
2023-05-12T04:47:00.228Z,9.40
2023-05-12T04:49:27.272Z,8.70
2023-05-12T04:51:54.490Z,9.60
2023-05-12T04:54:21.956Z,9.90
2023-05-12T04:56:49.288Z,9.60
2023-05-12T04:59:16.289Z,10.50
2023-05-12T05:01:44.201Z,9.30
2023-05-12T05:04:11.099Z,10.10
2023-05-12T05:06:38.030Z,10.80
2023-05-12T05:09:05.874Z,9.70
2023-05-12T05:11:32.838Z,10.30
2023-05-12T05:13:59.965Z,9.30
2023-05-12T05:16:28.448Z,10.10
2023-05-12T05:18:58.623Z,9.70
2023-05-12T05:21:26.883Z,9.40
2023-05-12T05:23:54.487Z,10.60
2023-05-12T05:26:22.355Z,10.40
2023-05-12T05:28:55.509Z,10.00
2023-05-12T05:31:24.354Z,10.20
2023-05-12T05:33:51.745Z,9.90
2023-05-12T05:36:20.890Z,9.60
2023-05-12T05:38:48.980Z,9.80
2023-05-12T05:41:16.284Z,10.10
2023-05-12T05:43:43.255Z,9.10
2023-05-12T05:46:10.445Z,9.40
2023-05-12T05:48:38.626Z,9.40
2023-05-12T05:51:06.749Z,9.70
2023-05-12T05:53:33.791Z,9.50
2023-05-12T05:56:01.550Z,9.50
2023-05-12T05:58:28.925Z,9.70
2023-05-12T06:00:56.118Z,8.90
2023-05-12T06:03:23.608Z,9.30
2023-05-12T06:05:50.729Z,9.20
2023-05-12T06:08:18.050Z,8.60
2023-05-12T06:10:45.504Z,9.60
2023-05-12T06:13:12.557Z,8.50
2023-05-12T06:15:39.517Z,9.60
2023-05-12T06:18:07.120Z,8.50
2023-05-12T06:20:34.843Z,9.80
2023-05-12T06:23:02.137Z,8.60
2023-05-12T06:25:29.318Z,8.20
2023-05-12T06:27:56.384Z,8.70
2023-05-12T06:30:23.799Z,8.20
2023-05-12T06:35:22.543Z,7.00
2023-05-12T06:37:51.072Z,7.70
2023-05-12T06:40:18.247Z,7.10
2023-05-12T06:42:45.284Z,6.70
2023-05-12T06:45:16.285Z,6.30
2023-05-12T06:47:43.572Z,6.30
2023-05-12T06:50:11.021Z,6.90
2023-05-12T06:52:38.316Z,5.80
2023-05-12T06:55:07.155Z,6.30
2023-05-12T06:57:34.061Z,5.30
2023-05-12T07:00:03.219Z,5.00
2023-05-12T07:02:30.838Z,6.30
2023-05-12T07:04:58.013Z,5.90
2023-05-12T07:07:24.967Z,5.60
2023-05-12T07:09:51.899Z,5.20
2023-05-12T07:12:18.812Z,5.10
2023-05-12T07:14:45.778Z,5.40
2023-05-12T07:17:12.762Z,5.00
2023-05-12T07:19:40.281Z,5.30
2023-05-12T07:22:07.330Z,5.10
2023-05-12T07:24:34.359Z,5.30
2023-05-12T07:27:01.376Z,5.10
2023-05-12T07:29:28.484Z,5.60
2023-05-12T07:31:55.934Z,5.70
2023-05-12T07:34:22.912Z,5.80
2023-05-12T07:36:49.965Z,5.50
2023-05-12T07:39:23.361Z,5.20
2023-05-12T07:41:51.159Z,4.90
2023-05-12T07:44:18.064Z,4.30
2023-05-12T07:46:45.029Z,5.30
2023-05-12T07:49:12.086Z,4.60
2023-05-12T07:51:39.571Z,5.20
2023-05-12T07:54:07.309Z,5.40
2023-05-12T07:56:34.372Z,5.70
2023-05-12T07:59:01.326Z,5.10
2023-05-12T08:01:28.230Z,4.80
2023-05-12T08:03:55.319Z,4.50
2023-05-12T08:06:22.264Z,3.90
2023-05-12T08:08:49.942Z,3.80
2023-05-12T08:11:16.905Z,4.40
2023-05-12T08:13:43.735Z,5.00
2023-05-12T08:16:10.573Z,4.60
2023-05-12T08:18:37.534Z,4.20
2023-05-12T08:21:04.391Z,7.20
2023-05-12T08:23:31.351Z,4.00
2023-05-12T08:25:58.202Z,4.30
2023-05-12T08:28:25.032Z,4.30
2023-05-12T08:30:51.887Z,3.80
2023-05-12T08:33:18.738Z,2.80
2023-05-12T08:35:45.611Z,3.90
2023-05-12T08:38:12.483Z,3.50
2023-05-12T08:40:47.140Z,3.30
2023-05-12T08:43:26.112Z,5.60
2023-05-12T08:45:57.736Z,3.90
2023-05-12T08:48:27.612Z,3.30
2023-05-12T08:50:54.588Z,3.90
2023-05-12T08:53:24.510Z,3.60
2023-05-12T08:57:08.984Z,2.80
2023-05-12T08:58:42.016Z,3.60
2023-05-12T09:01:10.324Z,3.70
2023-05-12T09:03:37.212Z,3.40
2023-05-12T09:06:04.401Z,2.90
2023-05-12T09:08:33.266Z,3.10
2023-05-12T09:11:00.596Z,2.90
2023-05-12T09:13:36.789Z,3.10
2023-05-12T09:16:04.243Z,2.60
2023-05-12T09:18:56.967Z,3.10
2023-05-12T09:21:24.074Z,3.50
2023-05-12T09:23:59.162Z,2.90
2023-05-12T09:26:27.131Z,2.80
2023-05-12T09:28:55.163Z,2.30
2023-05-12T09:31:23.140Z,2.70
2023-05-12T09:33:51.055Z,2.90
2023-05-12T09:36:27.042Z,2.70
2023-05-12T09:39:09.256Z,2.30
2023-05-12T09:41:40.135Z,2.70
2023-05-12T09:44:08.587Z,2.70
2023-05-12T09:46:36.075Z,2.60
2023-05-12T09:49:06.597Z,2.40
2023-05-12T09:51:33.512Z,2.50
2023-05-12T09:54:00.943Z,2.20
2023-05-12T09:56:29.390Z,2.20
2023-05-12T09:58:59.515Z,2.20
2023-05-12T10:01:28.076Z,2.10
2023-05-12T10:03:56.725Z,1.90
2023-05-12T10:06:28.937Z,2.20
2023-05-12T10:10:52.427Z,2.30
2023-05-12T10:13:19.383Z,1.70
2023-05-12T10:15:47.436Z,1.90
2023-05-12T10:18:15.069Z,1.80
2023-05-12T10:20:44.168Z,2.00
2023-05-12T10:23:12.794Z,2.10
2023-05-12T10:25:41.453Z,5.00
2023-05-12T10:28:08.985Z,4.90
2023-05-12T10:30:38.168Z,4.60
2023-05-12T10:33:05.960Z,4.10
2023-05-12T10:35:34.362Z,3.50
2023-05-12T10:38:08.873Z,3.40
2023-05-12T10:40:36.088Z,3.00
2023-05-12T10:43:03.310Z,2.30
2023-05-12T10:45:35.627Z,2.80
2023-05-12T10:48:07.101Z,2.00
2023-05-12T10:50:34.130Z,1.80
2023-05-12T10:53:01.053Z,2.20
2023-05-12T10:55:35.973Z,2.50
2023-05-12T10:58:10.893Z,1.60
2023-05-12T11:00:46.778Z,2.30
2023-05-12T11:05:44.187Z,2.20
2023-05-12T11:08:11.848Z,2.20
2023-05-12T11:10:41.680Z,2.40
2023-05-12T11:13:08.625Z,3.10
2023-05-12T11:15:35.465Z,2.80
2023-05-12T11:18:03.308Z,2.30
2023-05-12T11:20:31.044Z,7.80
2023-05-12T11:22:58.168Z,4.30
2023-05-12T11:25:27.403Z,3.10
2023-05-12T11:27:54.592Z,7.30
2023-05-12T11:30:21.953Z,2.70
2023-05-12T11:32:48.901Z,2.00
2023-05-12T11:35:17.749Z,2.20
2023-05-12T11:37:45.448Z,2.20
2023-05-12T11:40:16.519Z,2.00
2023-05-12T11:42:48.310Z,2.00
2023-05-12T11:45:22.488Z,2.00
2023-05-12T11:47:49.527Z,2.40
2023-05-12T11:50:23.592Z,2.50
2023-05-12T11:52:51.577Z,2.30
2023-05-12T11:55:23.630Z,2.50
2023-05-12T11:57:58.860Z,2.80
2023-05-12T12:00:33.232Z,1.90
2023-05-12T12:03:13.967Z,2.10
2023-05-12T12:05:42.030Z,2.00
2023-05-12T12:08:13.693Z,2.40
2023-05-12T12:10:47.210Z,2.20
2023-05-12T12:13:23.133Z,2.40
2023-05-12T12:15:50.852Z,2.20
2023-05-12T12:18:19.178Z,2.50
2023-05-12T12:20:49.089Z,2.20
2023-05-12T12:23:16.045Z,2.50
2023-05-12T12:25:43.672Z,2.20
2023-05-12T12:28:10.800Z,2.00
2023-05-12T12:30:37.960Z,2.20
2023-05-12T12:33:04.976Z,2.90
2023-05-12T12:35:31.984Z,2.10
2023-05-12T12:37:59.498Z,2.00
2023-05-12T12:40:26.328Z,2.20
2023-05-12T12:42:53.538Z,2.20
2023-05-12T12:45:20.724Z,2.10
2023-05-12T12:47:47.759Z,2.10
2023-05-12T12:50:15.036Z,2.40
2023-05-12T12:52:42.032Z,1.90
2023-05-12T12:55:10.026Z,2.80
2023-05-12T12:57:37.048Z,2.10
2023-05-12T13:00:04.999Z,2.20
2023-05-12T13:02:31.898Z,2.30
2023-05-12T13:04:58.922Z,1.70
2023-05-12T13:07:26.028Z,2.20
2023-05-12T13:09:53.097Z,2.20
2023-05-12T13:12:19.891Z,2.10
2023-05-12T13:14:46.748Z,2.20
2023-05-12T13:17:13.553Z,2.00
2023-05-12T13:19:40.736Z,2.40
2023-05-12T13:22:07.688Z,2.00
2023-05-12T13:24:34.540Z,2.50
2023-05-12T13:27:01.392Z,2.40
2023-05-12T13:29:28.441Z,2.40
2023-05-12T13:31:55.580Z,2.20
2023-05-12T13:34:22.548Z,2.40
2023-05-12T13:36:49.572Z,2.10
2023-05-12T13:39:18.411Z,2.50
2023-05-12T13:41:46.565Z,2.20
2023-05-12T13:44:13.426Z,2.30
2023-05-12T13:46:40.913Z,1.90
2023-05-12T13:49:07.938Z,1.80
2023-05-12T13:51:34.915Z,2.10
2023-05-12T13:54:01.885Z,1.80
2023-05-12T13:56:28.694Z,2.10
2023-05-12T13:58:55.561Z,1.90
2023-05-12T14:01:22.535Z,2.00
2023-05-12T14:03:49.556Z,1.80
2023-05-12T14:06:16.465Z,1.90
2023-05-12T14:08:43.338Z,2.20
2023-05-12T14:11:10.282Z,1.70
2023-05-12T14:13:37.257Z,1.80
2023-05-12T14:16:04.897Z,2.40
2023-05-12T14:18:32.455Z,1.80
2023-05-12T14:20:59.513Z,2.00
2023-05-12T14:23:26.459Z,2.00
2023-05-12T14:25:53.407Z,2.50
2023-05-12T14:28:20.413Z,2.20
2023-05-12T14:30:48.932Z,2.20
2023-05-12T14:33:15.827Z,2.60
2023-05-12T14:35:44.718Z,2.40
2023-05-12T14:38:15.201Z,2.60
2023-05-12T14:40:42.702Z,2.90
2023-05-12T14:43:09.675Z,2.20
2023-05-12T14:45:36.578Z,2.20
2023-05-12T14:48:03.657Z,2.30
2023-05-12T14:50:30.674Z,1.80
2023-05-12T14:52:57.703Z,2.00
2023-05-12T14:55:25.396Z,2.60
2023-05-12T14:57:52.365Z,2.00
2023-05-12T15:00:23.561Z,1.80
2023-05-12T15:02:50.538Z,1.70
2023-05-12T15:05:17.458Z,2.00
2023-05-12T15:07:44.408Z,2.40
2023-05-12T15:10:11.317Z,2.50
2023-05-12T15:12:38.135Z,2.10
2023-05-12T15:15:08.533Z,2.30
2023-05-12T15:17:35.677Z,2.20
2023-05-12T15:20:03.855Z,2.10
2023-05-12T15:22:31.689Z,2.10
2023-05-12T15:24:59.161Z,2.30
2023-05-12T15:27:26.711Z,2.10
2023-05-12T15:29:54.076Z,2.10
2023-05-12T15:32:21.012Z,2.00
2023-05-12T15:34:47.957Z,1.90
2023-05-12T15:37:14.860Z,2.30
2023-05-12T15:39:41.697Z,2.20
2023-05-12T15:42:09.407Z,2.00
2023-05-12T15:44:36.462Z,2.10
2023-05-12T15:47:03.527Z,2.00
2023-05-12T15:49:30.459Z,2.10
2023-05-12T15:51:57.408Z,1.90
2023-05-12T15:54:26.615Z,1.90
2023-05-12T15:56:53.445Z,2.50
2023-05-12T15:59:20.415Z,1.70
2023-05-12T16:01:47.362Z,2.00
2023-05-12T16:04:14.387Z,2.20
2023-05-12T16:06:41.298Z,2.00
2023-05-12T16:09:09.566Z,2.40
2023-05-12T16:11:36.525Z,2.00
2023-05-12T16:14:03.394Z,2.30
2023-05-12T16:16:30.527Z,2.10
2023-05-12T16:18:57.867Z,2.10
2023-05-12T16:21:24.895Z,2.10
2023-05-12T16:23:51.808Z,2.20
2023-05-12T16:26:19.469Z,1.90
2023-05-12T16:28:46.386Z,2.10
2023-05-12T16:31:18.020Z,2.50
2023-05-12T16:33:45.242Z,2.40
2023-05-12T16:36:12.129Z,2.00
2023-05-12T16:38:38.968Z,2.10
2023-05-12T16:41:05.908Z,2.30
2023-05-12T16:43:32.764Z,1.90
2023-05-12T16:46:01.335Z,2.20
2023-05-12T16:48:33.603Z,2.00
2023-05-12T16:51:02.551Z,1.90
2023-05-12T16:53:30.201Z,3.00
2023-05-12T16:55:58.093Z,2.60
2023-05-12T16:58:26.133Z,1.80
2023-05-12T17:00:53.173Z,2.20
2023-05-12T17:03:20.228Z,1.50
2023-05-12T17:05:53.311Z,1.80
2023-05-12T17:08:27.328Z,2.40
2023-05-12T17:10:54.483Z,1.80
2023-05-12T17:13:21.623Z,2.10
2023-05-12T17:15:48.632Z,2.30
2023-05-12T17:18:15.558Z,2.50
2023-05-12T17:20:42.358Z,2.20
2023-05-12T17:23:09.614Z,2.30
2023-05-12T17:25:36.800Z,2.30
2023-05-12T17:28:04.632Z,2.20
2023-05-12T17:30:32.132Z,2.40
2023-05-12T17:32:58.996Z,2.30
2023-05-12T17:35:25.974Z,2.40
2023-05-12T17:37:55.590Z,1.90
2023-05-12T17:40:22.684Z,2.40
2023-05-12T17:42:50.386Z,2.40
2023-05-12T17:45:17.575Z,2.30
2023-05-12T17:47:45.016Z,2.30
2023-05-12T17:50:12.822Z,2.50
2023-05-12T17:52:39.898Z,2.30
2023-05-12T17:55:07.130Z,2.60
2023-05-12T17:57:34.453Z,2.00
2023-05-12T18:00:05.795Z,2.00
2023-05-12T18:02:41.264Z,2.00
2023-05-12T18:05:09.165Z,2.10
2023-05-12T18:07:36.352Z,2.10
2023-05-12T18:10:03.341Z,2.10
2023-05-12T18:12:30.230Z,2.20
2023-05-12T18:14:57.257Z,2.60
2023-05-12T18:17:24.279Z,2.50
2023-05-12T18:19:51.474Z,2.80
2023-05-12T18:22:18.520Z,3.50
2023-05-12T18:24:45.638Z,4.20
2023-05-12T18:27:12.544Z,4.60
2023-05-12T18:29:39.306Z,5.50
2023-05-12T18:32:06.237Z,4.50
2023-05-12T18:34:33.704Z,4.10
2023-05-12T18:37:00.795Z,4.20
2023-05-12T18:39:28.419Z,4.50
2023-05-12T18:41:55.494Z,4.20
2023-05-12T18:44:22.442Z,4.60
2023-05-12T18:46:49.353Z,3.40
2023-05-12T18:49:16.518Z,2.90
2023-05-12T18:51:43.488Z,3.30
2023-05-12T18:54:10.718Z,2.70
2023-05-12T18:56:37.608Z,3.30
2023-05-12T18:59:04.675Z,3.10
2023-05-12T19:01:32.010Z,3.40
2023-05-12T19:03:59.191Z,3.00
2023-05-12T19:06:26.841Z,3.70
2023-05-12T19:08:53.930Z,3.40
2023-05-12T19:11:21.122Z,3.30
2023-05-12T19:13:50.734Z,3.60
2023-05-12T19:16:18.469Z,3.90
2023-05-12T19:18:46.054Z,4.30
2023-05-12T19:21:13.156Z,4.30
2023-05-12T19:23:40.177Z,4.30
2023-05-12T19:26:07.434Z,4.40
2023-05-12T19:28:34.386Z,4.50
2023-05-12T19:31:01.363Z,4.90
2023-05-12T19:33:29.526Z,4.80
2023-05-12T19:35:56.746Z,4.20
2023-05-12T19:38:23.930Z,4.40
2023-05-12T19:40:50.961Z,4.80
2023-05-12T19:43:17.932Z,4.80
2023-05-12T19:45:44.825Z,4.60
2023-05-12T19:48:12.007Z,4.50
2023-05-12T19:50:39.125Z,4.40
2023-05-12T19:53:06.067Z,5.30
2023-05-12T19:55:33.159Z,5.40
2023-05-12T19:58:02.045Z,5.20
2023-05-12T20:00:28.988Z,5.60
2023-05-12T20:02:56.063Z,4.70
2023-05-12T20:05:23.415Z,5.60
2023-05-12T20:07:51.153Z,5.20
2023-05-12T20:10:18.281Z,5.10
2023-05-12T20:12:45.097Z,5.80
2023-05-12T20:15:12.192Z,5.90
2023-05-12T20:17:39.179Z,6.00
2023-05-12T20:20:07.186Z,5.90
2023-05-12T20:22:34.111Z,5.80
2023-05-12T20:25:04.516Z,5.60
2023-05-12T20:27:32.239Z,7.60
2023-05-12T20:29:59.229Z,6.60
2023-05-12T20:32:26.193Z,6.30
2023-05-12T20:34:53.115Z,5.80
2023-05-12T20:37:20.731Z,5.90
2023-05-12T20:39:47.660Z,5.80
2023-05-12T20:42:14.720Z,6.90
2023-05-12T20:44:42.434Z,6.60
2023-05-12T20:47:09.977Z,6.60
2023-05-12T20:49:37.103Z,6.80
2023-05-12T20:52:04.152Z,6.30
2023-05-12T20:54:31.011Z,6.00
2023-05-12T20:56:57.868Z,6.00
2023-05-12T20:59:24.801Z,6.40
2023-05-12T21:01:51.730Z,6.10
2023-05-12T21:04:18.803Z,6.20
2023-05-12T21:06:45.796Z,6.90
2023-05-12T21:09:12.667Z,7.10
2023-05-12T21:11:39.615Z,7.60
2023-05-12T21:14:06.512Z,6.60
2023-05-12T21:16:33.609Z,6.40
2023-05-12T21:19:00.577Z,6.60
2023-05-12T21:21:28.800Z,5.60
2023-05-12T21:23:55.838Z,6.10
2023-05-12T21:26:22.739Z,6.30
2023-05-12T21:28:49.577Z,6.10
2023-05-12T21:31:16.526Z,6.50
2023-05-12T21:33:43.499Z,6.90
2023-05-12T21:36:10.303Z,6.30
2023-05-12T21:38:37.194Z,7.30
2023-05-12T21:41:04.248Z,6.70
2023-05-12T21:43:31.263Z,6.90
2023-05-12T21:46:03.111Z,6.50
2023-05-12T21:48:30.084Z,6.40
2023-05-12T21:50:59.112Z,6.20
2023-05-12T21:53:26.109Z,6.30
2023-05-12T21:55:53.265Z,6.30
2023-05-12T21:58:20.159Z,6.10
2023-05-12T22:00:47.095Z,5.90
2023-05-12T22:03:14.152Z,6.70
2023-05-12T22:05:41.037Z,6.00
2023-05-12T22:08:07.892Z,5.60
2023-05-12T22:10:34.753Z,6.20
2023-05-12T22:13:01.796Z,6.40
2023-05-12T22:15:28.940Z,6.20
2023-05-12T22:17:55.908Z,5.70
2023-05-12T22:20:23.474Z,6.40
2023-05-12T22:22:50.473Z,6.50
2023-05-12T22:25:17.357Z,5.80
2023-05-12T22:28:37.456Z,6.40
2023-05-12T22:31:04.376Z,6.50
2023-05-12T22:33:32.519Z,6.60
2023-05-12T22:36:00.302Z,6.30
2023-05-12T22:38:27.676Z,6.40
2023-05-12T22:40:54.557Z,5.90
2023-05-12T22:43:21.508Z,6.70
2023-05-12T22:45:52.260Z,6.50
2023-05-12T22:48:19.829Z,6.70
2023-05-12T22:50:46.654Z,6.70
2023-05-12T22:53:13.674Z,6.60
2023-05-12T22:55:40.548Z,6.80
2023-05-12T22:58:07.561Z,6.30
2023-05-12T23:00:34.527Z,6.80
2023-05-12T23:03:03.415Z,6.70
2023-05-12T23:05:30.495Z,6.90
2023-05-12T23:07:57.540Z,6.00
2023-05-12T23:10:24.624Z,7.10
2023-05-12T23:12:51.669Z,6.80
2023-05-12T23:15:18.642Z,7.10
2023-05-12T23:17:45.535Z,6.90
2023-05-12T23:20:12.951Z,7.00
2023-05-12T23:22:39.784Z,6.10
2023-05-12T23:25:07.345Z,6.60
2023-05-12T23:27:34.362Z,6.30
2023-05-12T23:30:01.169Z,6.60
2023-05-12T23:32:28.274Z,6.70
2023-05-12T23:34:55.252Z,6.60
2023-05-12T23:37:22.191Z,6.80
2023-05-12T23:39:49.152Z,7.00
2023-05-12T23:42:17.237Z,6.20
2023-05-12T23:44:44.152Z,7.00
2023-05-12T23:47:11.038Z,6.90
2023-05-12T23:49:38.010Z,6.80
2023-05-12T23:52:05.109Z,6.10
2023-05-12T23:54:32.027Z,6.50
2023-05-12T23:56:58.851Z,6.80
2023-05-12T23:59:25.697Z,6.60
